Terminal Aerodrome Forecast
Issued by NWS Cleveland, OH

Home | Current Version | Previous Version | Text Only | Print | Product List | Glossary On
Versions: 1 2 3 4 5 6 7 8 9 10 11 12 13 14 15 16 17 18
000
FTUS41 KCLE 051132
TAFCLE
TAF
KCLE 051132Z 0512/0618 17003KT P6SM SCT250
     FM051700 02008KT P6SM BKN250
     FM060300 14004KT P6SM BKN200
     FM060900 15002KT 5SM BR SCT250
     FM061400 VRB04KT P6SM VCSH SCT040 BKN100=

USA.gov is the U.S. government's official web portal to all federal, state and local government web resources and services.